createdAt,value
2023-04-04T00:02:27.722Z,7.20
2023-04-04T00:04:55.461Z,7.20
2023-04-04T00:07:23.167Z,7.20
2023-04-04T00:09:50.881Z,7.20
2023-04-04T00:12:20.100Z,7.00
2023-04-04T00:14:47.912Z,7.00
2023-04-04T00:17:15.644Z,7.00
2023-04-04T00:19:43.695Z,7.00
2023-04-04T00:22:13.620Z,7.10
2023-04-04T00:24:41.635Z,7.20
2023-04-04T00:27:09.515Z,7.10
2023-04-04T00:29:38.618Z,7.00
2023-04-04T00:32:06.665Z,7.10
2023-04-04T00:34:36.285Z,7.20
2023-04-04T00:37:04.048Z,7.10
2023-04-04T00:39:32.184Z,7.10
2023-04-04T00:42:00.020Z,7.10
2023-04-04T00:44:27.810Z,7.10
2023-04-04T00:46:56.933Z,6.90
2023-04-04T00:49:24.732Z,6.80
2023-04-04T00:51:52.710Z,6.70
2023-04-04T00:54:20.607Z,6.70
2023-04-04T00:56:48.714Z,6.80
2023-04-04T00:59:17.105Z,6.80
2023-04-04T01:01:45.094Z,6.80
2023-04-04T01:04:14.244Z,6.80
2023-04-04T01:06:42.205Z,6.70
2023-04-04T01:09:10.052Z,6.70
2023-04-04T01:11:38.330Z,6.60
2023-04-04T01:14:06.287Z,6.40
2023-04-04T01:16:35.876Z,6.40
2023-04-04T01:19:06.609Z,6.40
2023-04-04T01:21:37.021Z,6.40
2023-04-04T01:24:05.613Z,6.30
2023-04-04T01:26:34.716Z,6.40
2023-04-04T01:29:02.467Z,6.30
2023-04-04T01:31:36.539Z,6.30
2023-04-04T01:34:13.261Z,6.10
2023-04-04T01:36:46.228Z,6.10
2023-04-04T01:39:21.375Z,6.10
2023-04-04T01:41:51.228Z,6.30
2023-04-04T01:44:19.288Z,6.10
2023-04-04T01:46:47.022Z,5.90
2023-04-04T01:49:14.683Z,5.90
2023-04-04T01:51:42.407Z,6.00
2023-04-04T01:54:10.725Z,6.00
2023-04-04T01:56:38.498Z,6.00
2023-04-04T01:59:07.673Z,5.90
2023-04-04T02:01:35.503Z,5.90
2023-04-04T02:04:03.435Z,5.80
2023-04-04T02:06:31.205Z,5.90
2023-04-04T02:08:59.752Z,5.80
2023-04-04T02:11:27.590Z,5.80
2023-04-04T02:13:55.249Z,5.90
2023-04-04T02:16:24.388Z,6.00
2023-04-04T02:18:52.975Z,5.90
2023-04-04T02:21:20.655Z,5.80
2023-04-04T02:23:48.375Z,5.70
2023-04-04T02:26:16.061Z,5.90
2023-04-04T02:28:43.857Z,5.80
2023-04-04T02:31:11.726Z,5.80
2023-04-04T02:33:40.798Z,5.70
2023-04-04T02:36:08.837Z,5.70
2023-04-04T02:38:36.541Z,5.80
2023-04-04T02:41:04.249Z,5.80
2023-04-04T02:43:31.988Z,5.70
2023-04-04T02:46:01.202Z,5.60
2023-04-04T02:48:32.863Z,5.60
2023-04-04T02:51:01.993Z,5.70
2023-04-04T02:53:29.705Z,5.60
2023-04-04T02:55:57.392Z,5.60
2023-04-04T02:58:25.209Z,5.60
2023-04-04T03:00:56.412Z,5.70
2023-04-04T03:03:24.335Z,5.60
2023-04-04T03:05:52.251Z,5.70
2023-04-04T03:08:21.291Z,5.80
2023-04-04T03:10:49.068Z,5.70
2023-04-04T03:13:16.763Z,5.60
2023-04-04T03:15:47.338Z,5.70
2023-04-04T03:18:15.470Z,5.70
2023-04-04T03:20:43.353Z,5.60
2023-04-04T03:23:11.038Z,5.40
2023-04-04T03:25:40.067Z,5.50
2023-04-04T03:28:11.268Z,5.40
2023-04-04T03:30:39.752Z,5.40
2023-04-04T03:33:08.649Z,5.30
2023-04-04T03:35:39.573Z,5.40
2023-04-04T03:38:07.378Z,5.40
2023-04-04T03:40:35.449Z,5.30
2023-04-04T03:43:04.618Z,5.40
2023-04-04T03:45:34.488Z,5.40
2023-04-04T03:48:02.266Z,5.40
2023-04-04T03:50:30.672Z,5.20
2023-04-04T03:52:59.324Z,5.20
2023-04-04T03:55:27.283Z,5.20
2023-04-04T03:57:55.142Z,5.20
2023-04-04T04:00:24.827Z,5.30
2023-04-04T04:02:52.701Z,5.20
2023-04-04T04:05:20.543Z,5.20
2023-04-04T04:07:48.213Z,5.30
2023-04-04T04:10:15.888Z,5.30
2023-04-04T04:12:43.524Z,5.10
2023-04-04T04:15:11.752Z,5.10
2023-04-04T04:17:41.977Z,5.10
2023-04-04T04:20:10.810Z,5.10
2023-04-04T04:22:38.858Z,5.20
2023-04-04T04:25:06.722Z,5.20
2023-04-04T04:27:34.853Z,5.10
2023-04-04T04:30:02.614Z,5.20
2023-04-04T04:32:30.279Z,5.10
2023-04-04T04:34:59.345Z,5.20
2023-04-04T04:37:27.157Z,5.10
2023-04-04T04:39:54.884Z,5.20
2023-04-04T04:42:22.650Z,5.10
2023-04-04T04:44:50.454Z,4.90
2023-04-04T04:47:18.214Z,5.00
2023-04-04T04:49:48.125Z,5.10
2023-04-04T04:52:17.189Z,4.90
2023-04-04T04:54:45.189Z,5.00
2023-04-04T04:57:12.997Z,4.90
2023-04-04T04:59:41.255Z,5.00
2023-04-04T05:02:09.105Z,4.80
2023-04-04T05:04:36.950Z,4.90
2023-04-04T05:07:04.662Z,5.00
2023-04-04T05:09:34.049Z,5.00
2023-04-04T05:12:01.789Z,5.00
2023-04-04T05:14:29.656Z,5.00
2023-04-04T05:16:57.339Z,5.00
2023-04-04T05:19:25.112Z,4.90
2023-04-04T05:21:53.956Z,4.80
2023-04-04T05:24:22.887Z,5.00
2023-04-04T05:26:52.072Z,5.00
2023-04-04T05:29:19.817Z,5.00
2023-04-04T05:31:47.672Z,4.90
2023-04-04T05:34:15.451Z,5.00
2023-04-04T05:36:43.272Z,4.90
2023-04-04T05:39:10.975Z,5.00
2023-04-04T05:41:38.656Z,5.10
2023-04-04T05:44:07.818Z,5.10
2023-04-04T05:46:35.929Z,5.00
2023-04-04T05:49:03.800Z,5.10
2023-04-04T05:51:31.513Z,5.00
2023-04-04T05:53:59.301Z,5.10
2023-04-04T05:56:27.014Z,5.00
2023-04-04T05:58:54.781Z,5.00
2023-04-04T06:01:23.857Z,4.90
2023-04-04T06:03:51.624Z,5.00
2023-04-04T06:06:19.568Z,5.00
2023-04-04T06:08:53.639Z,5.10
2023-04-04T06:11:23.913Z,5.20
2023-04-04T06:13:52.835Z,5.20
2023-04-04T06:16:20.589Z,5.30
2023-04-04T06:18:49.717Z,5.50
2023-04-04T06:21:17.435Z,5.60
2023-04-04T06:23:45.347Z,5.60
2023-04-04T06:26:13.220Z,5.70
2023-04-04T06:28:48.414Z,5.80
2023-04-04T06:31:16.386Z,6.00
2023-04-04T06:33:44.690Z,6.00
2023-04-04T06:36:13.827Z,6.00
2023-04-04T06:38:41.566Z,6.30
2023-04-04T06:41:09.322Z,6.40
2023-04-04T06:43:37.403Z,6.60
2023-04-04T06:46:05.718Z,6.80
2023-04-04T06:48:33.903Z,6.80
2023-04-04T06:51:01.860Z,7.00
2023-04-04T06:53:31.269Z,7.00
2023-04-04T06:55:59.587Z,7.10
2023-04-04T06:58:27.617Z,7.10
2023-04-04T07:00:56.493Z,7.20
2023-04-04T07:03:24.783Z,7.40
2023-04-04T07:05:52.594Z,7.60
2023-04-04T07:08:20.456Z,7.40
2023-04-04T07:10:49.554Z,7.50
2023-04-04T07:13:17.336Z,7.80
2023-04-04T07:15:48.750Z,7.90
2023-04-04T07:18:16.622Z,8.40
2023-04-04T07:20:44.672Z,8.40
2023-04-04T07:23:12.382Z,8.60
2023-04-04T07:25:40.711Z,8.60
2023-04-04T07:28:13.330Z,9.00
2023-04-04T07:30:41.590Z,9.10
2023-04-04T07:33:09.589Z,9.20
2023-04-04T07:35:37.804Z,9.70
2023-04-04T07:38:05.622Z,9.90
2023-04-04T07:40:33.449Z,10.00
2023-04-04T07:43:01.311Z,9.80
2023-04-04T07:45:30.501Z,9.70
2023-04-04T07:47:59.343Z,10.20
2023-04-04T07:50:27.314Z,10.20
2023-04-04T07:52:56.027Z,10.20
2023-04-04T07:55:25.138Z,9.70
2023-04-04T07:57:53.470Z,10.30
2023-04-04T08:00:22.867Z,10.90
2023-04-04T08:02:54.778Z,10.60
2023-04-04T08:05:23.556Z,11.10
2023-04-04T08:07:51.415Z,10.90
2023-04-04T08:10:20.756Z,11.40
2023-04-04T08:12:49.914Z,12.00
2023-04-04T08:15:17.901Z,11.60
2023-04-04T08:17:45.906Z,11.70
2023-04-04T08:20:15.556Z,11.50
2023-04-04T08:22:43.981Z,11.60
2023-04-04T08:25:12.071Z,12.00
2023-04-04T08:27:43.980Z,12.00
2023-04-04T08:30:13.055Z,11.90
2023-04-04T08:32:40.919Z,12.10
2023-04-04T08:35:09.568Z,12.00
2023-04-04T08:37:39.578Z,12.00
2023-04-04T08:40:08.749Z,11.90
2023-04-04T08:42:39.679Z,11.90
2023-04-04T08:45:10.894Z,11.90
2023-04-04T08:47:40.796Z,12.00
2023-04-04T08:50:09.757Z,12.00
2023-04-04T08:52:39.428Z,12.00
2023-04-04T08:55:08.311Z,12.00
2023-04-04T08:57:36.859Z,12.20
2023-04-04T09:00:06.737Z,12.40
2023-04-04T09:02:39.032Z,12.60
2023-04-04T09:05:08.785Z,12.70
2023-04-04T09:07:39.470Z,12.70
2023-04-04T09:10:10.319Z,12.80
2023-04-04T09:12:38.952Z,12.90
2023-04-04T09:15:07.995Z,12.90
2023-04-04T09:17:35.771Z,12.80
2023-04-04T09:20:05.054Z,12.70
2023-04-04T09:22:32.890Z,12.60
2023-04-04T09:25:11.904Z,12.60
2023-04-04T09:27:39.743Z,12.60
2023-04-04T09:30:09.108Z,12.60
2023-04-04T09:32:37.047Z,12.30
2023-04-04T09:35:05.744Z,12.30
2023-04-04T09:37:33.805Z,12.60
2023-04-04T09:40:01.845Z,13.10
2023-04-04T09:42:31.169Z,12.40
2023-04-04T09:44:58.964Z,13.00
2023-04-04T09:47:31.054Z,12.80
2023-04-04T09:49:59.625Z,12.80
2023-04-04T09:52:27.890Z,12.80
2023-04-04T09:54:59.307Z,12.50
2023-04-04T09:57:29.071Z,12.60
2023-04-04T10:00:01.571Z,12.80
2023-04-04T10:02:32.010Z,12.80
2023-04-04T10:05:06.163Z,13.20
2023-04-04T10:07:34.669Z,13.10
2023-04-04T10:10:02.697Z,13.20
2023-04-04T10:12:33.174Z,13.20
2023-04-04T10:15:02.835Z,12.80
2023-04-04T10:17:32.377Z,12.90
2023-04-04T10:20:02.336Z,13.00
2023-04-04T10:22:30.391Z,13.10
2023-04-04T10:24:59.072Z,13.20
2023-04-04T10:27:27.301Z,13.20
2023-04-04T10:29:55.821Z,13.00
2023-04-04T10:32:30.092Z,12.90
2023-04-04T10:35:03.848Z,12.70
2023-04-04T10:37:37.425Z,13.00
2023-04-04T10:40:10.246Z,13.00
2023-04-04T10:42:40.951Z,12.30
2023-04-04T10:45:19.844Z,12.80
2023-04-04T10:47:51.620Z,12.80
2023-04-04T10:50:21.825Z,12.00
2023-04-04T10:52:50.349Z,12.40
2023-04-04T10:55:18.706Z,12.30
2023-04-04T10:57:51.856Z,12.60
2023-04-04T11:00:24.078Z,12.70
2023-04-04T11:02:57.062Z,12.80
2023-04-04T11:05:26.851Z,12.70
2023-04-04T11:10:31.907Z,12.70
2023-04-04T11:13:12.801Z,12.90
2023-04-04T11:15:54.767Z,13.10
2023-04-04T11:18:33.120Z,13.10
2023-04-04T11:21:02.982Z,13.40
2023-04-04T11:24:00.340Z,13.00
2023-04-04T11:26:36.868Z,13.50
2023-04-04T11:29:08.036Z,13.70
2023-04-04T11:31:39.910Z,13.70
2023-04-04T11:34:11.073Z,13.40
2023-04-04T11:36:53.552Z,13.00
2023-04-04T11:39:28.295Z,13.20
2023-04-04T11:41:58.897Z,13.20
2023-04-04T11:44:30.334Z,13.00
2023-04-04T11:47:04.121Z,13.20
2023-04-04T11:49:36.252Z,12.90
2023-04-04T11:52:06.688Z,13.10
2023-04-04T11:54:34.717Z,13.30
2023-04-04T11:57:03.801Z,13.40
2023-04-04T11:59:31.567Z,13.60
2023-04-04T12:02:01.418Z,13.40
2023-04-04T12:04:29.641Z,13.30
2023-04-04T12:06:58.784Z,12.90
2023-04-04T12:09:28.808Z,13.40
2023-04-04T12:11:56.905Z,13.40
2023-04-04T12:14:25.266Z,13.40
2023-04-04T12:16:54.548Z,13.60
2023-04-04T12:19:24.164Z,13.60
2023-04-04T12:21:53.415Z,13.70
2023-04-04T12:24:23.743Z,13.80
2023-04-04T12:26:53.836Z,14.10
2023-04-04T12:29:23.866Z,14.10
2023-04-04T12:31:53.167Z,14.00
2023-04-04T12:34:23.772Z,13.70
2023-04-04T12:36:54.035Z,13.50
2023-04-04T12:39:23.995Z,13.80
2023-04-04T12:41:57.115Z,13.90
2023-04-04T12:44:30.431Z,13.80
2023-04-04T12:46:59.964Z,13.70
2023-04-04T12:49:30.374Z,13.50
2023-04-04T12:52:00.834Z,13.60
2023-04-04T12:54:31.665Z,13.50
2023-04-04T12:57:00.430Z,13.40
2023-04-04T12:59:30.335Z,13.50
2023-04-04T13:01:58.674Z,13.60
2023-04-04T13:04:26.557Z,13.20
2023-04-04T13:06:54.734Z,12.40
2023-04-04T13:09:23.928Z,12.90
2023-04-04T13:12:01.909Z,13.40
2023-04-04T13:14:30.445Z,13.70
2023-04-04T13:17:08.054Z,13.50
2023-04-04T13:19:35.990Z,13.90
2023-04-04T13:22:04.012Z,14.00
2023-04-04T13:24:31.727Z,14.10
2023-04-04T13:27:00.906Z,14.30
2023-04-04T13:29:28.811Z,14.20
2023-04-04T13:31:56.514Z,14.20
2023-04-04T13:34:26.661Z,14.10
2023-04-04T13:36:56.487Z,14.10
2023-04-04T13:39:24.241Z,14.30
2023-04-04T13:41:52.014Z,14.00
2023-04-04T13:44:21.580Z,13.90
2023-04-04T13:46:49.252Z,14.30
2023-04-04T13:49:16.944Z,14.40
2023-04-04T13:51:44.676Z,14.50
2023-04-04T13:54:12.633Z,14.40
2023-04-04T13:56:42.867Z,14.20
2023-04-04T13:59:11.364Z,13.80
2023-04-04T14:01:41.226Z,13.90
2023-04-04T14:04:22.757Z,14.10
2023-04-04T14:06:51.804Z,14.00
2023-04-04T14:09:20.083Z,14.20
2023-04-04T14:11:47.708Z,14.20
2023-04-04T14:14:15.449Z,14.00
2023-04-04T14:16:44.511Z,14.30
2023-04-04T14:19:12.303Z,13.50
2023-04-04T14:21:39.996Z,13.80
2023-04-04T14:24:08.171Z,13.90
2023-04-04T14:26:37.593Z,14.10
2023-04-04T14:29:05.539Z,14.40
2023-04-04T14:31:34.851Z,14.60
2023-04-04T14:34:04.509Z,14.60
2023-04-04T14:36:32.274Z,14.60
2023-04-04T14:39:00.005Z,14.60
2023-04-04T14:41:28.834Z,14.60
2023-04-04T14:43:56.500Z,14.80
2023-04-04T14:46:25.939Z,14.80
2023-04-04T14:48:53.849Z,14.30
2023-04-04T14:51:22.897Z,14.60
2023-04-04T14:53:52.363Z,14.70
2023-04-04T14:56:21.901Z,14.80
2023-04-04T14:58:51.262Z,14.60
2023-04-04T15:01:21.290Z,14.50
2023-04-04T15:03:49.031Z,13.80
2023-04-04T15:06:16.819Z,14.00
2023-04-04T15:08:46.417Z,14.00
2023-04-04T15:11:15.858Z,13.80
2023-04-04T15:13:44.204Z,14.00
2023-04-04T15:16:12.280Z,14.20
2023-04-04T15:18:40.154Z,14.30
2023-04-04T15:21:07.921Z,14.20
2023-04-04T15:23:35.706Z,14.20
2023-04-04T15:26:04.729Z,14.10
2023-04-04T15:28:33.102Z,14.20
2023-04-04T15:31:02.165Z,14.30
2023-04-04T15:33:29.861Z,14.30
2023-04-04T15:35:57.644Z,14.30
2023-04-04T15:38:25.504Z,14.40
2023-04-04T15:40:53.329Z,14.30
2023-04-04T15:43:22.849Z,14.20
2023-04-04T15:45:50.883Z,14.30
2023-04-04T15:48:18.792Z,14.20
2023-04-04T15:50:46.781Z,14.20
2023-04-04T15:53:14.620Z,14.10
2023-04-04T15:55:44.171Z,14.10
2023-04-04T15:58:11.878Z,14.10
2023-04-04T16:00:41.315Z,14.20
2023-04-04T16:03:09.280Z,14.20
2023-04-04T16:05:37.117Z,14.00
2023-04-04T16:08:04.984Z,14.00
2023-04-04T16:10:32.763Z,14.00
2023-04-04T16:13:00.615Z,14.10
2023-04-04T16:15:28.515Z,14.10
2023-04-04T16:17:58.846Z,14.10
2023-04-04T16:20:27.173Z,13.70
2023-04-04T16:22:56.150Z,13.50
2023-04-04T16:25:24.004Z,13.60
2023-04-04T16:27:51.841Z,13.40
2023-04-04T16:30:19.852Z,13.40
2023-04-04T16:32:47.752Z,13.50
2023-04-04T16:35:16.985Z,13.30
2023-04-04T16:37:44.803Z,13.30
2023-04-04T16:40:14.807Z,13.20
2023-04-04T16:42:43.266Z,13.30
2023-04-04T16:45:12.107Z,13.40
2023-04-04T16:47:39.932Z,13.40
2023-04-04T16:50:08.874Z,13.20
2023-04-04T16:52:37.986Z,12.90
2023-04-04T16:55:06.766Z,12.80
2023-04-04T16:57:34.444Z,12.70
2023-04-04T17:00:04.057Z,12.70
2023-04-04T17:02:32.223Z,12.60
2023-04-04T17:05:00.873Z,12.80
2023-04-04T17:07:28.631Z,13.00
2023-04-04T17:09:57.780Z,13.10
2023-04-04T17:12:25.602Z,13.10
2023-04-04T17:14:53.525Z,13.20
2023-04-04T17:17:21.282Z,13.10
2023-04-04T17:19:49.125Z,12.80
2023-04-04T17:22:17.019Z,12.80
2023-04-04T17:24:44.909Z,12.70
2023-04-04T17:27:14.311Z,12.60
2023-04-04T17:29:41.995Z,12.50
2023-04-04T17:32:09.894Z,12.20
2023-04-04T17:34:37.737Z,12.50
2023-04-04T17:37:05.963Z,12.70
2023-04-04T17:39:33.678Z,12.80
2023-04-04T17:42:01.798Z,12.70
2023-04-04T17:44:31.031Z,12.90
2023-04-04T17:46:58.754Z,12.90
2023-04-04T17:49:27.153Z,12.70
2023-04-04T17:51:54.963Z,12.80
2023-04-04T17:54:23.319Z,12.60
2023-04-04T17:56:51.051Z,12.80
2023-04-04T17:59:18.962Z,12.70
2023-04-04T18:01:48.191Z,12.70
2023-04-04T18:04:16.296Z,12.70
2023-04-04T18:06:43.984Z,12.70
2023-04-04T18:09:11.698Z,12.70
2023-04-04T18:11:40.183Z,12.70
2023-04-04T18:14:08.668Z,12.70
2023-04-04T18:16:40.421Z,12.70
2023-04-04T18:19:10.965Z,12.60
2023-04-04T18:21:39.032Z,12.70
2023-04-04T18:24:10.988Z,12.60
2023-04-04T18:26:38.824Z,12.70
2023-04-04T18:29:06.685Z,12.80
2023-04-04T18:31:34.467Z,12.80
2023-04-04T18:34:02.392Z,13.00
2023-04-04T18:36:31.537Z,13.10
2023-04-04T18:39:00.964Z,12.90
2023-04-04T18:41:28.884Z,12.80
2023-04-04T18:43:57.060Z,12.80
2023-04-04T18:46:24.930Z,12.90
2023-04-04T18:48:52.714Z,12.80
2023-04-04T18:51:22.342Z,12.90
2023-04-04T18:53:52.842Z,12.90
2023-04-04T18:56:21.592Z,12.80
2023-04-04T18:58:49.611Z,12.80
2023-04-04T19:01:17.627Z,12.90
2023-04-04T19:03:47.470Z,12.70
2023-04-04T19:06:16.089Z,12.70
2023-04-04T19:08:44.659Z,12.80
2023-04-04T19:11:15.650Z,12.70
2023-04-04T19:13:43.507Z,12.70
2023-04-04T19:16:11.332Z,12.50
2023-04-04T19:18:39.091Z,12.40
2023-04-04T19:21:07.953Z,12.40
2023-04-04T19:23:37.094Z,12.40
2023-04-04T19:26:04.874Z,12.30
2023-04-04T19:28:34.034Z,12.20
2023-04-04T19:31:04.331Z,12.20
2023-04-04T19:33:34.716Z,12.20
2023-04-04T19:36:09.020Z,12.10
2023-04-04T19:38:37.630Z,11.80
2023-04-04T19:41:09.385Z,12.00
2023-04-04T19:43:39.403Z,11.80
2023-04-04T19:46:12.130Z,12.00
2023-04-04T19:48:49.534Z,11.90
2023-04-04T19:51:40.109Z,11.80
2023-04-04T19:54:12.353Z,11.80
2023-04-04T19:56:40.524Z,11.80
2023-04-04T19:59:48.390Z,11.80
2023-04-04T20:02:57.022Z,11.70
2023-04-04T20:05:59.056Z,11.70
2023-04-04T20:08:43.879Z,11.60
2023-04-04T20:11:12.903Z,11.50
2023-04-04T20:13:42.037Z,11.40
2023-04-04T20:16:12.938Z,11.40
2023-04-04T20:18:43.337Z,11.40
2023-04-04T20:21:13.675Z,11.30
2023-04-04T20:23:45.458Z,11.10
2023-04-04T20:26:16.247Z,11.00
2023-04-04T20:28:47.458Z,10.90
2023-04-04T20:31:19.606Z,10.70
2023-04-04T20:33:47.482Z,10.60
2023-04-04T20:36:32.814Z,10.60
2023-04-04T20:39:00.809Z,10.60
2023-04-04T20:41:28.773Z,10.50
2023-04-04T20:43:58.327Z,10.50
2023-04-04T20:46:28.467Z,10.50
2023-04-04T20:48:56.980Z,10.50
2023-04-04T20:51:30.096Z,10.40
2023-04-04T20:53:59.260Z,10.50
2023-04-04T20:56:56.472Z,10.60
2023-04-04T20:59:32.241Z,10.60
2023-04-04T21:02:10.223Z,10.70
2023-04-04T21:04:38.206Z,10.70
2023-04-04T21:07:07.251Z,10.60
2023-04-04T21:09:35.149Z,10.60
2023-04-04T21:12:03.125Z,10.60
2023-04-04T21:14:38.964Z,10.50
2023-04-04T21:17:11.148Z,10.40
2023-04-04T21:19:38.861Z,10.40
2023-04-04T21:22:07.787Z,10.00
2023-04-04T21:24:36.881Z,10.20
2023-04-04T21:27:07.506Z,10.00
2023-04-04T21:29:35.163Z,10.10
2023-04-04T21:32:03.759Z,10.00
2023-04-04T21:34:32.846Z,9.90
2023-04-04T21:37:02.711Z,10.00
2023-04-04T21:39:31.083Z,9.90
2023-04-04T21:42:01.278Z,10.00
2023-04-04T21:44:29.403Z,9.80
2023-04-04T21:46:57.175Z,9.60
2023-04-04T21:49:26.096Z,9.60
2023-04-04T21:51:55.270Z,9.60
2023-04-04T21:54:24.040Z,9.60
2023-04-04T21:56:51.877Z,9.40
2023-04-04T21:59:19.805Z,9.50
2023-04-04T22:01:47.673Z,9.30
2023-04-04T22:04:15.406Z,9.30
2023-04-04T22:06:43.242Z,9.30
2023-04-04T22:09:12.374Z,9.20
2023-04-04T22:11:44.137Z,9.10
2023-04-04T22:14:17.828Z,9.20
2023-04-04T22:16:46.104Z,9.10
2023-04-04T22:19:13.945Z,9.00
2023-04-04T22:21:47.933Z,8.90
2023-04-04T22:24:18.816Z,8.90
2023-04-04T22:26:46.774Z,8.90
2023-04-04T22:29:14.599Z,8.90
2023-04-04T22:31:42.330Z,8.90
2023-04-04T22:34:11.872Z,8.70
2023-04-04T22:36:42.060Z,8.70
2023-04-04T22:39:09.914Z,8.70
2023-04-04T22:41:39.004Z,8.80
2023-04-04T22:44:06.716Z,8.70
2023-04-04T22:46:34.677Z,8.50
2023-04-04T22:49:08.780Z,8.50
2023-04-04T22:51:43.961Z,8.40
2023-04-04T22:54:14.368Z,8.40
2023-04-04T22:56:43.810Z,8.40
2023-04-04T22:59:11.797Z,8.30
2023-04-04T23:01:40.011Z,8.40
2023-04-04T23:04:08.111Z,8.60
2023-04-04T23:06:36.342Z,8.40
2023-04-04T23:09:04.088Z,8.40
2023-04-04T23:11:31.862Z,8.30
2023-04-04T23:14:01.378Z,8.20
2023-04-04T23:16:29.220Z,8.30
2023-04-04T23:18:56.992Z,8.30
2023-04-04T23:21:24.901Z,8.30
2023-04-04T23:23:52.673Z,8.20
2023-04-04T23:26:20.452Z,8.00
2023-04-04T23:28:48.212Z,8.00
2023-04-04T23:31:17.895Z,8.10
2023-04-04T23:33:45.695Z,8.00
2023-04-04T23:36:13.462Z,8.00
2023-04-04T23:38:41.192Z,7.90
2023-04-04T23:41:09.413Z,7.70
2023-04-04T23:43:37.168Z,7.70
2023-04-04T23:46:05.770Z,7.70
2023-04-04T23:48:34.977Z,7.70
2023-04-04T23:51:04.158Z,7.60
2023-04-04T23:53:31.979Z,7.70
2023-04-04T23:55:59.660Z,7.70
2023-04-04T23:58:27.398Z,7.70
